Time;durP1;ratioP1;P1;durP2;ratioP2;P2;SDS_P1;SDS_P2;PMS_P1;PMS_P2;Temp;Humidity;BMP_temperature;BMP_pressure;BME280_temperature;BME280_humidity;BME280_pressure;Samples;Min_cycle;Max_cycle;Signal;HPM_P1;HPM_P2
2023/05/02 00:00:27;;;;;;;38.22;26.60;;;12.30;85.30;;;;;;4984973;28;20029;-75
2023/05/02 00:02:53;;;;;;;35.92;25.20;;;12.30;85.30;;;;;;4989861;28;20043;-74
2023/05/02 00:05:19;;;;;;;38.65;25.30;;;12.30;85.30;;;;;;4991625;28;20382;-74
2023/05/02 00:07:45;;;;;;;34.63;25.33;;;12.30;85.50;;;;;;4993226;28;20062;-73
2023/05/02 00:10:11;;;;;;;35.85;25.08;;;12.30;85.50;;;;;;4989440;28;20030;-75
2023/05/02 00:12:37;;;;;;;33.38;24.73;;;12.30;85.40;;;;;;4991290;28;20133;-74
2023/05/02 00:15:03;;;;;;;39.42;26.05;;;12.40;85.40;;;;;;4991272;28;20142;-73
2023/05/02 00:17:29;;;;;;;36.08;25.23;;;12.30;85.50;;;;;;4991183;28;20037;-75
2023/05/02 00:19:55;;;;;;;36.97;25.38;;;12.30;85.60;;;;;;4997462;28;20026;-73
2023/05/02 00:22:21;;;;;;;38.60;25.38;;;12.30;85.60;;;;;;4995249;28;20030;-75
2023/05/02 00:24:46;;;;;;;33.13;26.52;;;12.30;85.60;;;;;;4989847;28;20057;-75
2023/05/02 00:27:13;;;;;;;40.15;26.80;;;12.30;85.60;;;;;;4992583;28;20466;-74
2023/05/02 00:29:39;;;;;;;38.60;26.52;;;12.30;85.70;;;;;;4993755;28;20031;-74
2023/05/02 00:32:05;;;;;;;36.17;25.60;;;12.30;85.60;;;;;;4993961;28;20029;-74
2023/05/02 00:34:31;;;;;;;38.40;26.50;;;12.30;85.60;;;;;;4998603;28;20048;-75
2023/05/02 00:36:57;;;;;;;37.95;27.55;;;12.30;85.70;;;;;;5001016;28;20642;-75
2023/05/02 00:39:23;;;;;;;38.10;26.33;;;12.40;85.70;;;;;;5001739;28;20022;-74
2023/05/02 00:41:55;;;;;;;37.10;27.08;;;12.30;85.80;;;;;;4997794;28;20381;-74
2023/05/02 00:44:21;;;;;;;42.70;27.85;;;12.40;85.90;;;;;;5002033;28;20345;-75
2023/05/02 00:46:47;;;;;;;37.20;25.00;;;12.30;85.80;;;;;;5005758;28;20053;-75
2023/05/02 00:49:13;;;;;;;42.90;28.25;;;12.30;85.90;;;;;;5015809;28;20080;-75
2023/05/02 00:51:39;;;;;;;40.25;26.65;;;12.30;85.90;;;;;;5008095;28;20026;-75
2023/05/02 00:54:05;;;;;;;41.90;27.60;;;12.40;85.90;;;;;;5018261;28;20037;-74
2023/05/02 00:56:31;;;;;;;39.10;28.52;;;12.40;85.90;;;;;;5022807;28;20037;-76
2023/05/02 00:58:57;;;;;;;37.08;26.77;;;12.30;85.90;;;;;;5008026;28;20029;-74
2023/05/02 01:02:01;;;;;;;43.65;28.02;;;12.30;85.90;;;;;;5016617;28;20041;-75
2023/05/02 01:05:04;;;;;;;39.53;26.60;;;12.40;85.90;;;;;;4972702;28;20030;-73
2023/05/02 01:08:07;;;;;;;40.15;27.13;;;12.40;86.00;;;;;;4971025;28;20046;-75
2023/05/02 01:10:36;;;;;;;38.05;26.42;;;12.40;85.90;;;;;;5007574;28;20036;-76
2023/05/02 01:13:09;;;;;;;40.80;28.38;;;12.40;85.90;;;;;;5015285;28;20037;-75
2023/05/02 01:15:38;;;;;;;38.38;28.05;;;12.40;85.90;;;;;;5008682;28;20026;-76
2023/05/02 01:18:07;;;;;;;41.88;29.55;;;12.40;86.00;;;;;;5009571;28;20041;-75
2023/05/02 01:20:37;;;;;;;37.60;27.08;;;12.40;86.00;;;;;;5013172;28;20076;-76
2023/05/02 01:23:12;;;;;;;39.65;28.30;;;12.40;86.00;;;;;;5015267;28;20547;-75
2023/05/02 01:26:06;;;;;;;41.65;28.48;;;12.40;85.90;;;;;;5026744;28;20100;-75
2023/05/02 01:29:07;;;;;;;40.13;28.38;;;12.40;85.80;;;;;;5012075;28;20029;-76
2023/05/02 01:31:39;;;;;;;41.75;30.02;;;12.40;85.70;;;;;;4951286;28;20043;-74
2023/05/02 01:34:11;;;;;;;45.83;32.42;;;12.40;85.80;;;;;;5006849;28;20041;-74
2023/05/02 01:36:42;;;;;;;43.20;30.23;;;12.40;85.80;;;;;;5013112;28;20541;-75
2023/05/02 01:39:12;;;;;;;46.95;32.45;;;12.40;85.90;;;;;;5010674;28;20158;-74
2023/05/02 01:41:39;;;;;;;43.17;31.13;;;12.40;85.90;;;;;;5017294;28;20067;-76
2023/05/02 01:44:07;;;;;;;46.63;32.72;;;12.30;86.10;;;;;;5016086;28;20104;-77
2023/05/02 01:46:37;;;;;;;47.22;33.13;;;12.40;86.10;;;;;;5015409;28;20156;-74
2023/05/02 01:49:06;;;;;;;47.08;33.45;;;12.40;86.10;;;;;;5011705;28;20071;-74
2023/05/02 01:51:34;;;;;;;45.38;31.42;;;12.40;86.10;;;;;;5013157;28;20432;-74
2023/05/02 01:54:06;;;;;;;49.78;33.42;;;12.40;86.10;;;;;;5015490;28;20418;-74
2023/05/02 01:56:35;;;;;;;47.10;33.38;;;12.40;86.10;;;;;;5010940;28;20075;-74
2023/05/02 01:59:04;;;;;;;47.00;33.08;;;12.40;86.30;;;;;;5013761;28;20026;-74
2023/05/02 02:01:31;;;;;;;48.83;33.30;;;12.30;86.30;;;;;;5013588;28;20300;-74
2023/05/02 02:03:59;;;;;;;50.88;34.25;;;12.30;86.30;;;;;;5016702;28;20040;-74
2023/05/02 02:06:26;;;;;;;51.45;34.45;;;12.30;86.30;;;;;;5013932;28;20534;-74
2023/05/02 02:08:52;;;;;;;56.03;35.42;;;12.30;86.40;;;;;;5012968;28;20033;-74
2023/05/02 02:11:26;;;;;;;49.03;32.80;;;12.20;86.60;;;;;;5009608;28;20050;-74
2023/05/02 02:13:59;;;;;;;47.35;33.63;;;12.30;86.60;;;;;;5003426;28;20052;-74
2023/05/02 02:16:30;;;;;;;55.78;36.70;;;12.20;86.60;;;;;;5004145;28;20144;-73
2023/05/02 02:18:58;;;;;;;55.05;35.55;;;12.20;86.70;;;;;;5007282;28;20053;-74
2023/05/02 02:21:27;;;;;;;50.17;34.63;;;12.10;86.80;;;;;;5010257;28;20068;-74
2023/05/02 02:23:56;;;;;;;53.00;34.33;;;12.10;86.90;;;;;;5008588;28;20026;-74
2023/05/02 02:26:22;;;;;;;50.22;34.75;;;12.00;87.00;;;;;;5001984;28;20041;-72
2023/05/02 02:28:49;;;;;;;53.15;36.00;;;12.00;87.10;;;;;;5008875;28;20510;-75
2023/05/02 02:31:15;;;;;;;50.40;35.17;;;11.90;87.20;;;;;;5002613;28;20026;-76
2023/05/02 02:33:40;;;;;;;57.13;38.33;;;11.80;87.40;;;;;;5006264;28;20026;-75
2023/05/02 02:36:12;;;;;;;52.53;35.42;;;11.80;87.50;;;;;;5005071;28;20456;-76
2023/05/02 02:38:37;;;;;;;54.92;36.20;;;11.80;87.50;;;;;;5009632;28;20029;-76
2023/05/02 02:41:13;;;;;;;58.78;37.15;;;11.70;87.60;;;;;;5000428;28;20034;-74
2023/05/02 02:44:00;;;;;;;56.25;36.08;;;11.80;87.70;;;;;;5001389;28;20482;-74
2023/05/02 02:46:50;;;;;;;52.13;36.58;;;11.70;87.70;;;;;;5000449;28;20446;-74
2023/05/02 02:49:38;;;;;;;62.15;37.35;;;11.80;87.70;;;;;;5003190;28;20097;-76
2023/05/02 02:52:20;;;;;;;57.65;37.33;;;11.70;87.80;;;;;;4999546;28;20066;-76
2023/05/02 02:54:57;;;;;;;60.25;38.10;;;11.70;88.00;;;;;;5009679;28;20029;-74
2023/05/02 02:57:56;;;;;;;51.80;34.40;;;11.60;88.00;;;;;;5007608;28;20022;-74
2023/05/02 03:00:26;;;;;;;53.60;35.75;;;11.60;88.00;;;;;;5004431;28;20101;-74
2023/05/02 03:02:53;;;;;;;51.03;35.53;;;11.60;88.10;;;;;;5012280;28;20038;-74
2023/05/02 03:05:21;;;;;;;58.50;37.72;;;11.50;88.10;;;;;;5007918;28;20028;-74
2023/05/02 03:07:46;;;;;;;51.67;34.70;;;11.50;88.20;;;;;;5007989;28;20339;-74
2023/05/02 03:10:12;;;;;;;53.88;35.53;;;11.40;88.30;;;;;;5008111;28;20545;-74
2023/05/02 03:12:40;;;;;;;51.17;33.40;;;11.40;88.30;;;;;;5010654;28;20157;-74
2023/05/02 03:15:43;;;;;;;56.97;33.85;;;11.30;88.40;;;;;;5006068;28;20022;-73
2023/05/02 03:18:09;;;;;;;48.33;32.50;;;11.30;88.40;;;;;;5007642;28;20042;-74
2023/05/02 03:20:35;;;;;;;52.22;32.42;;;11.20;88.40;;;;;;5008491;28;20367;-76
2023/05/02 03:23:00;;;;;;;54.03;33.00;;;11.20;88.60;;;;;;5009404;28;20034;-74
2023/05/02 03:25:26;;;;;;;55.58;34.20;;;11.20;88.60;;;;;;5004513;28;20034;-73
2023/05/02 03:27:52;;;;;;;56.70;35.22;;;11.20;88.50;;;;;;5009896;28;20042;-74
2023/05/02 03:30:18;;;;;;;53.45;33.70;;;11.10;88.50;;;;;;5013602;28;20083;-75
2023/05/02 03:32:44;;;;;;;48.85;32.60;;;11.10;88.50;;;;;;5021326;28;20494;-74
2023/05/02 03:35:09;;;;;;;50.15;32.92;;;11.00;88.40;;;;;;5010456;28;20022;-74
2023/05/02 03:37:35;;;;;;;54.35;33.65;;;11.00;88.50;;;;;;5010610;28;20114;-75
2023/05/02 03:40:01;;;;;;;50.80;34.03;;;11.00;88.50;;;;;;5016268;28;20105;-75
2023/05/02 03:42:27;;;;;;;48.55;33.30;;;11.00;88.40;;;;;;5015089;28;20029;-74
2023/05/02 03:44:52;;;;;;;49.83;32.80;;;11.00;88.60;;;;;;5011430;28;20025;-74
2023/05/02 03:47:19;;;;;;;52.85;33.10;;;10.90;88.60;;;;;;5013501;28;20470;-74
2023/05/02 03:49:45;;;;;;;56.85;33.47;;;10.90;88.70;;;;;;5010230;28;20058;-74
2023/05/02 03:52:11;;;;;;;52.50;32.83;;;10.90;88.60;;;;;;5011318;28;20033;-74
2023/05/02 03:54:37;;;;;;;49.80;30.80;;;10.90;88.60;;;;;;5012241;28;20445;-77
2023/05/02 03:57:03;;;;;;;50.22;33.00;;;10.80;88.60;;;;;;5007700;28;20027;-73
2023/05/02 03:59:33;;;;;;;52.55;33.80;;;10.80;88.40;;;;;;5010440;28;20083;-73
2023/05/02 04:01:58;;;;;;;49.15;32.05;;;10.80;88.30;;;;;;5008796;28;20108;-75
2023/05/02 04:04:24;;;;;;;50.38;32.25;;;10.80;88.30;;;;;;5011682;28;20121;-75
2023/05/02 04:06:50;;;;;;;52.83;32.95;;;10.90;88.20;;;;;;5011020;28;20421;-75
2023/05/02 04:09:15;;;;;;;48.50;32.42;;;10.80;88.40;;;;;;5013555;28;20342;-75
2023/05/02 04:11:41;;;;;;;55.80;34.28;;;10.90;88.60;;;;;;5002247;28;20026;-75
2023/05/02 04:14:07;;;;;;;46.33;29.13;;;10.80;88.80;;;;;;5010324;28;20022;-76
2023/05/02 04:16:32;;;;;;;44.80;29.23;;;10.80;88.90;;;;;;5000447;28;20081;-76
2023/05/02 04:18:58;;;;;;;43.30;29.27;;;10.90;88.80;;;;;;5003506;28;20319;-75
2023/05/02 04:21:24;;;;;;;41.72;27.05;;;10.80;88.80;;;;;;5004239;28;20065;-75
2023/05/02 04:23:50;;;;;;;37.65;25.05;;;10.80;88.90;;;;;;5007359;28;20024;-76
2023/05/02 04:26:15;;;;;;;37.38;25.58;;;10.80;88.50;;;;;;5002608;28;20445;-74
2023/05/02 04:28:41;;;;;;;38.58;25.58;;;10.90;88.50;;;;;;5006034;28;20056;-75
2023/05/02 04:31:07;;;;;;;39.00;25.23;;;10.80;88.20;;;;;;5008744;28;20037;-74
2023/05/02 04:33:33;;;;;;;37.92;25.17;;;10.90;88.20;;;;;;5010698;28;20010;-75
2023/05/02 04:36:00;;;;;;;35.42;23.15;;;10.80;88.10;;;;;;5000703;28;20046;-77
2023/05/02 04:38:26;;;;;;;33.85;22.27;;;10.90;88.00;;;;;;5009382;28;20021;-74
2023/05/02 04:40:52;;;;;;;34.00;22.17;;;10.80;88.00;;;;;;5000569;28;20526;-75
2023/05/02 04:43:17;;;;;;;30.80;21.77;;;10.80;87.70;;;;;;4997366;28;20072;-75
2023/05/02 04:45:43;;;;;;;31.13;22.48;;;10.90;87.60;;;;;;4999406;28;20045;-76
2023/05/02 04:48:08;;;;;;;31.98;21.02;;;11.00;87.50;;;;;;4999860;28;20586;-74
2023/05/02 04:50:34;;;;;;;31.33;20.08;;;10.90;87.40;;;;;;5002330;28;20034;-76
2023/05/02 04:53:00;;;;;;;32.40;21.02;;;10.90;87.40;;;;;;5013653;28;20030;-74
2023/05/02 04:55:25;;;;;;;30.83;20.23;;;10.90;87.60;;;;;;5016427;28;20370;-74
2023/05/02 04:57:51;;;;;;;30.85;20.13;;;11.00;87.70;;;;;;5007921;28;20428;-75
2023/05/02 05:00:17;;;;;;;30.67;19.52;;;11.10;87.50;;;;;;5010406;28;20104;-74
2023/05/02 05:02:42;;;;;;;30.77;19.25;;;11.10;87.40;;;;;;5011786;28;20080;-75
2023/05/02 05:05:08;;;;;;;29.77;18.92;;;11.00;87.30;;;;;;5008034;28;20934;-74
2023/05/02 05:07:34;;;;;;;29.73;19.13;;;11.10;87.40;;;;;;5013564;28;20030;-76
2023/05/02 05:10:00;;;;;;;25.70;18.33;;;11.10;87.30;;;;;;5013739;28;20026;-75
2023/05/02 05:12:26;;;;;;;28.08;18.17;;;11.10;87.30;;;;;;5016695;28;20041;-73
2023/05/02 05:14:51;;;;;;;25.17;17.25;;;11.10;87.40;;;;;;5010986;28;20116;-74
2023/05/02 05:17:17;;;;;;;28.55;17.25;;;11.20;87.30;;;;;;5004257;28;20548;-74
2023/05/02 05:19:43;;;;;;;26.65;17.23;;;11.20;87.20;;;;;;5010830;28;20371;-75
2023/05/02 05:22:09;;;;;;;30.38;17.08;;;11.20;87.00;;;;;;5009363;28;20026;-74
2023/05/02 05:24:34;;;;;;;24.40;15.95;;;11.20;87.10;;;;;;5011357;28;20033;-74
2023/05/02 05:27:00;;;;;;;20.55;14.13;;;11.10;87.10;;;;;;5012138;28;20536;-73
2023/05/02 05:29:26;;;;;;;17.73;12.52;;;11.10;86.90;;;;;;5009147;28;20076;-76
2023/05/02 05:31:51;;;;;;;15.77;10.55;;;11.10;86.20;;;;;;5002597;28;20034;-73
2023/05/02 05:34:17;;;;;;;14.82;9.60;;;11.10;85.50;;;;;;5002924;28;20440;-75
2023/05/02 05:36:43;;;;;;;14.18;10.25;;;11.10;85.30;;;;;;5014718;28;20051;-75
2023/05/02 05:39:09;;;;;;;15.55;11.48;;;11.10;85.30;;;;;;5008810;28;20470;-74
2023/05/02 05:41:37;;;;;;;21.00;12.75;;;11.10;85.20;;;;;;5010751;28;20034;-74
2023/05/02 05:44:02;;;;;;;19.77;11.98;;;11.10;85.20;;;;;;5010668;28;20026;-76
2023/05/02 05:46:28;;;;;;;15.75;11.15;;;11.10;84.90;;;;;;5006907;28;20060;-77
2023/05/02 05:48:54;;;;;;;16.73;11.77;;;11.10;85.20;;;;;;5007577;28;20024;-76
2023/05/02 05:51:19;;;;;;;20.52;12.40;;;11.10;85.10;;;;;;5008418;28;20032;-76
2023/05/02 05:53:45;;;;;;;20.05;12.48;;;11.10;85.30;;;;;;5008485;28;20080;-75
2023/05/02 05:56:12;;;;;;;21.38;14.27;;;11.10;85.20;;;;;;5008565;28;20330;-76
2023/05/02 05:58:38;;;;;;;18.95;12.82;;;11.20;85.30;;;;;;5005599;28;20549;-75
2023/05/02 06:01:04;;;;;;;22.60;13.60;;;11.30;85.20;;;;;;5005824;28;20040;-76
2023/05/02 06:03:30;;;;;;;18.30;13.13;;;11.40;84.90;;;;;;5012401;28;20036;-76
2023/05/02 06:05:56;;;;;;;20.88;12.00;;;11.40;84.80;;;;;;5013865;28;20109;-76
2023/05/02 06:08:22;;;;;;;20.40;12.15;;;11.50;84.80;;;;;;5006947;28;20110;-76
2023/05/02 06:10:47;;;;;;;17.92;11.35;;;11.60;84.30;;;;;;5004709;28;20036;-75
2023/05/02 06:13:13;;;;;;;17.15;11.45;;;11.70;84.00;;;;;;5005062;28;20072;-75
2023/05/02 06:15:39;;;;;;;18.88;11.88;;;11.90;83.70;;;;;;5006697;28;20430;-75
2023/05/02 06:18:04;;;;;;;20.00;11.95;;;11.90;83.30;;;;;;5004136;28;20038;-75
2023/05/02 06:20:30;;;;;;;17.30;11.73;;;11.90;83.00;;;;;;5003829;28;20092;-76
2023/05/02 06:22:55;;;;;;;12.98;10.93;;;11.70;82.70;;;;;;5005093;28;20040;-75
2023/05/02 06:25:21;;;;;;;13.48;9.40;;;11.70;82.50;;;;;;5006813;28;20374;-75
2023/05/02 06:27:47;;;;;;;15.52;10.10;;;11.60;82.50;;;;;;5009305;28;20462;-74
2023/05/02 06:30:12;;;;;;;17.40;8.55;;;11.60;82.60;;;;;;5001823;28;20398;-76
2023/05/02 06:32:38;;;;;;;12.18;7.65;;;11.60;82.20;;;;;;5003615;28;20042;-76
2023/05/02 06:35:04;;;;;;;14.02;7.95;;;11.50;81.30;;;;;;5007444;28;20469;-75
2023/05/02 06:37:36;;;;;;;11.38;7.38;;;11.50;81.70;;;;;;5011962;28;20041;-75
2023/05/02 06:40:02;;;;;;;15.68;9.27;;;11.50;82.00;;;;;;5005969;28;20036;-74
2023/05/02 06:42:28;;;;;;;14.15;7.60;;;11.70;81.70;;;;;;5006666;28;20033;-74
2023/05/02 06:44:54;;;;;;;12.20;8.43;;;11.70;81.10;;;;;;5011393;28;20029;-75
2023/05/02 06:47:23;;;;;;;16.65;7.97;;;11.90;80.70;;;;;;5004049;28;20481;-75
2023/05/02 06:49:51;;;;;;;13.98;7.53;;;12.10;80.40;;;;;;5007706;28;20076;-77
2023/05/02 06:52:17;;;;;;;16.13;9.25;;;12.10;79.10;;;;;;5010766;28;20125;-76
2023/05/02 06:54:43;;;;;;;14.18;7.70;;;12.10;78.60;;;;;;5006801;28;20116;-77
2023/05/02 06:57:09;;;;;;;15.30;9.27;;;12.10;78.80;;;;;;5011465;28;20100;-80
2023/05/02 06:59:35;;;;;;;16.42;9.05;;;12.10;77.90;;;;;;4999909;28;20092;-75
2023/05/02 07:02:01;;;;;;;13.60;8.65;;;12.20;77.90;;;;;;5006116;28;20489;-76
2023/05/02 07:04:26;;;;;;;16.08;8.77;;;12.30;77.20;;;;;;5011610;28;20355;-76
2023/05/02 07:06:52;;;;;;;15.40;9.15;;;12.40;77.00;;;;;;5010585;28;20061;-75
2023/05/02 07:09:18;;;;;;;16.98;9.10;;;12.70;77.50;;;;;;5008780;28;20362;-76
2023/05/02 07:11:43;;;;;;;17.65;10.50;;;12.70;75.90;;;;;;5005550;28;20049;-74
2023/05/02 07:14:09;;;;;;;18.90;11.00;;;12.80;76.50;;;;;;5008796;28;20038;-75
2023/05/02 07:16:35;;;;;;;15.10;10.20;;;12.80;75.30;;;;;;5007228;28;20054;-77
2023/05/02 07:19:03;;;;;;;16.20;9.15;;;12.80;75.90;;;;;;5004305;28;20025;-77
2023/05/02 07:21:29;;;;;;;17.95;9.63;;;12.90;75.80;;;;;;5006242;28;20084;-75
2023/05/02 07:23:56;;;;;;;15.20;8.02;;;13.10;74.50;;;;;;5000240;28;20034;-76
2023/05/02 07:26:22;;;;;;;15.02;8.00;;;13.00;74.60;;;;;;5006961;28;20096;-75
2023/05/02 07:28:48;;;;;;;17.45;8.45;;;13.00;74.60;;;;;;5011188;28;20036;-76
2023/05/02 07:31:14;;;;;;;18.88;8.07;;;13.00;75.00;;;;;;5006561;28;20037;-76
2023/05/02 07:33:39;;;;;;;15.00;8.10;;;13.10;74.10;;;;;;5006201;28;20108;-73
2023/05/02 07:36:05;;;;;;;17.83;8.55;;;13.30;73.70;;;;;;5010230;28;20113;-75
2023/05/02 07:38:31;;;;;;;14.80;7.72;;;13.30;73.10;;;;;;4998272;28;20026;-75
2023/05/02 07:40:59;;;;;;;16.13;7.40;;;13.20;72.70;;;;;;5009653;28;20454;-75
2023/05/02 07:43:26;;;;;;;15.52;6.97;;;13.10;73.40;;;;;;5011481;28;20022;-77
2023/05/02 07:45:52;;;;;;;13.60;5.30;;;13.10;72.90;;;;;;5020820;28;20426;-74
2023/05/02 07:48:19;;;;;;;12.93;6.45;;;13.10;72.00;;;;;;5012801;28;20096;-75
2023/05/02 07:50:44;;;;;;;10.75;5.15;;;13.00;72.10;;;;;;5010358;28;20100;-76
2023/05/02 07:53:10;;;;;;;10.43;4.60;;;13.10;71.00;;;;;;5010113;28;20173;-75
2023/05/02 07:55:36;;;;;;;9.32;4.85;;;12.80;71.00;;;;;;5012104;28;20112;-76
2023/05/02 07:58:02;;;;;;;12.27;5.00;;;12.90;70.90;;;;;;5003426;28;20125;-72
2023/05/02 08:00:29;;;;;;;12.00;5.60;;;12.70;71.40;;;;;;5005112;28;20422;-74
2023/05/02 08:02:55;;;;;;;14.07;5.10;;;12.90;71.50;;;;;;5015213;28;20034;-76
2023/05/02 08:05:20;;;;;;;15.23;6.10;;;13.10;70.20;;;;;;5011115;28;20040;-75
2023/05/02 08:07:46;;;;;;;11.10;5.40;;;13.00;70.30;;;;;;5002213;28;20034;-74
2023/05/02 08:10:12;;;;;;;10.60;5.47;;;12.90;70.80;;;;;;5008819;28;20353;-75
2023/05/02 08:12:41;;;;;;;9.90;4.97;;;13.00;69.80;;;;;;5010253;28;20030;-80
2023/05/02 08:15:09;;;;;;;12.45;5.68;;;13.10;70.00;;;;;;5011711;28;20021;-74
2023/05/02 08:17:34;;;;;;;11.60;6.25;;;13.20;69.60;;;;;;5009475;28;20026;-75
2023/05/02 08:20:00;;;;;;;12.05;5.70;;;13.20;67.80;;;;;;5006948;28;20469;-77
2023/05/02 08:22:26;;;;;;;13.00;6.03;;;13.10;68.50;;;;;;5009666;28;20053;-73
2023/05/02 08:24:51;;;;;;;11.00;6.28;;;13.20;69.30;;;;;;5012024;28;20045;-75
2023/05/02 08:27:17;;;;;;;13.18;7.15;;;13.60;67.90;;;;;;5008192;28;20034;-75
2023/05/02 08:29:43;;;;;;;12.55;7.18;;;13.80;66.50;;;;;;5014367;28;20113;-74
2023/05/02 08:32:08;;;;;;;12.73;7.35;;;14.00;65.80;;;;;;5005274;28;20030;-77
2023/05/02 08:34:34;;;;;;;12.18;7.75;;;14.10;65.40;;;;;;5013839;28;20108;-75
2023/05/02 08:36:59;;;;;;;12.60;7.55;;;14.20;66.50;;;;;;5015665;28;20040;-74
2023/05/02 08:39:25;;;;;;;13.07;6.47;;;14.70;65.90;;;;;;5007341;28;20102;-75
2023/05/02 08:41:51;;;;;;;13.30;6.75;;;15.00;63.00;;;;;;5016853;28;20029;-75
2023/05/02 08:44:17;;;;;;;11.60;5.53;;;15.10;63.00;;;;;;5015634;28;20030;-75
2023/05/02 08:46:43;;;;;;;13.02;5.47;;;15.20;62.30;;;;;;5013313;28;20034;-77
2023/05/02 08:49:10;;;;;;;10.93;4.68;;;15.60;60.00;;;;;;5017259;28;20021;-75
2023/05/02 08:51:36;;;;;;;10.82;4.22;;;15.20;61.30;;;;;;5016061;28;20038;-74
2023/05/02 08:54:03;;;;;;;9.48;3.90;;;15.50;62.10;;;;;;5014632;28;20445;-75
2023/05/02 08:56:29;;;;;;;13.98;4.10;;;15.50;60.20;;;;;;5016681;28;20033;-80
2023/05/02 08:58:55;;;;;;;13.85;4.68;;;15.40;59.30;;;;;;5015807;28;20369;-74
2023/05/02 09:01:26;;;;;;;11.73;4.82;;;15.40;59.70;;;;;;5012767;28;20033;-75
2023/05/02 09:03:53;;;;;;;12.15;4.22;;;15.40;60.90;;;;;;4989593;28;20061;-75
2023/05/02 09:06:21;;;;;;;10.18;4.28;;;15.30;61.20;;;;;;4973001;28;20054;-75
2023/05/02 09:08:48;;;;;;;10.90;4.28;;;15.20;61.30;;;;;;4974982;28;20120;-76
2023/05/02 09:11:15;;;;;;;9.45;4.10;;;15.00;62.50;;;;;;4976389;28;20379;-74
2023/05/02 09:13:46;;;;;;;11.35;4.30;;;15.10;62.00;;;;;;4973713;28;20024;-73
2023/05/02 09:16:24;;;;;;;11.82;4.57;;;15.10;61.70;;;;;;4975699;28;20046;-74
2023/05/02 09:18:51;;;;;;;12.20;3.97;;;15.40;61.10;;;;;;4982600;28;20474;-74
2023/05/02 09:21:44;;;;;;;10.48;3.83;;;15.70;58.80;;;;;;4967561;28;20031;-74
2023/05/02 09:24:18;;;;;;;12.10;4.30;;;15.60;59.10;;;;;;4971878;28;20452;-73
2023/05/02 09:26:57;;;;;;;11.20;4.35;;;15.60;60.20;;;;;;4972413;28;20030;-75
2023/05/02 09:29:23;;;;;;;10.40;4.53;;;15.30;60.20;;;;;;4968533;28;20019;-77
2023/05/02 09:31:48;;;;;;;12.10;4.57;;;15.30;59.40;;;;;;4972078;28;20039;-76
2023/05/02 09:34:17;;;;;;;9.10;3.92;;;15.40;59.60;;;;;;4974068;28;20083;-78
2023/05/02 09:36:52;;;;;;;12.77;4.07;;;15.60;59.00;;;;;;4980803;28;20028;-75
2023/05/02 09:39:29;;;;;;;9.90;3.97;;;15.60;58.50;;;;;;4970052;28;20102;-73
2023/05/02 09:41:56;;;;;;;11.75;3.85;;;15.50;57.50;;;;;;4968738;28;20041;-74
2023/05/02 09:44:24;;;;;;;13.65;4.65;;;15.50;59.50;;;;;;4973542;28;20101;-74
2023/05/02 09:46:54;;;;;;;13.73;3.97;;;15.30;57.80;;;;;;4971123;28;20105;-74
2023/05/02 09:49:48;;;;;;;12.38;4.28;;;15.40;59.00;;;;;;4965749;28;20031;-77
2023/05/02 09:52:20;;;;;;;8.77;3.80;;;15.60;58.50;;;;;;4967225;28;20323;-75
2023/05/02 09:54:46;;;;;;;12.70;4.22;;;16.50;57.80;;;;;;4973623;28;20162;-75
2023/05/02 09:57:12;;;;;;;10.57;3.97;;;16.40;56.00;;;;;;4974751;28;20101;-76
2023/05/02 09:59:38;;;;;;;11.25;6.00;;;15.90;57.30;;;;;;4973612;28;20031;-74
2023/05/02 10:02:06;;;;;;;10.75;4.82;;;15.60;57.90;;;;;;4971343;28;20057;-76
2023/05/02 10:04:33;;;;;;;11.85;5.10;;;15.40;59.20;;;;;;4979990;28;20034;-73
2023/05/02 10:07:00;;;;;;;13.13;4.65;;;15.60;58.10;;;;;;4974376;28;20055;-75
2023/05/02 10:09:27;;;;;;;12.80;4.97;;;15.70;58.70;;;;;;4969376;28;20030;-75
2023/05/02 10:11:55;;;;;;;14.20;5.82;;;15.70;58.40;;;;;;4970370;28;20089;-75
2023/05/02 10:14:23;;;;;;;13.70;4.72;;;15.50;58.60;;;;;;4974181;28;20033;-76
2023/05/02 10:16:59;;;;;;;12.90;5.00;;;15.90;56.50;;;;;;4970032;28;20076;-74
2023/05/02 10:19:32;;;;;;;11.73;5.05;;;16.10;55.90;;;;;;4971426;28;20049;-75
2023/05/02 10:21:59;;;;;;;10.77;5.15;;;16.50;57.30;;;;;;4970790;28;20038;-74
2023/05/02 10:24:25;;;;;;;12.18;4.85;;;16.80;55.00;;;;;;4975905;28;20022;-75
2023/05/02 10:26:52;;;;;;;15.05;5.28;;;16.40;55.50;;;;;;4971893;28;20027;-77
2023/05/02 10:29:19;;;;;;;9.63;5.13;;;16.10;56.10;;;;;;4967237;28;20015;-77
2023/05/02 10:31:45;;;;;;;9.57;4.90;;;15.90;57.40;;;;;;4972696;28;20370;-74
2023/05/02 10:34:12;;;;;;;11.80;5.07;;;16.10;57.40;;;;;;4968206;28;20218;-74
2023/05/02 10:36:38;;;;;;;15.10;6.63;;;16.40;55.50;;;;;;4972661;28;20065;-75
2023/05/02 10:39:05;;;;;;;13.63;6.40;;;16.70;56.00;;;;;;4969756;28;20360;-75
2023/05/02 10:41:33;;;;;;;12.68;5.05;;;16.90;53.40;;;;;;4970046;28;20030;-73
2023/05/02 10:44:00;;;;;;;13.00;5.10;;;17.10;52.80;;;;;;4982449;28;20086;-74
2023/05/02 10:46:30;;;;;;;12.88;5.05;;;17.20;52.10;;;;;;4974402;28;20053;-75
2023/05/02 10:49:15;;;;;;;11.57;5.28;;;17.40;53.10;;;;;;4966267;28;20030;-78
2023/05/02 10:51:41;;;;;;;;;;;17.50;53.20;;;;;;4967822;28;20587;-76
2023/05/02 10:54:19;;;;;;;11.30;5.25;;;17.00;51.90;;;;;;4971909;28;19906;-77
2023/05/02 10:57:07;;;;;;;12.98;4.75;;;16.50;53.90;;;;;;4962571;28;20119;-75
2023/05/02 10:59:41;;;;;;;10.57;5.05;;;16.70;53.20;;;;;;4969412;28;20077;-74
2023/05/02 11:02:23;;;;;;;12.85;4.95;;;16.40;52.50;;;;;;4981460;28;20023;-75
2023/05/02 11:05:00;;;;;;;8.82;4.45;;;16.50;52.50;;;;;;4967412;28;20477;-75
2023/05/02 11:07:26;;;;;;;8.68;4.13;;;16.60;52.00;;;;;;4971832;28;20034;-75
2023/05/02 11:10:11;;;;;;;9.57;4.63;;;16.70;49.90;;;;;;4964479;28;20081;-76
2023/05/02 11:12:49;;;;;;;;;;;16.80;49.10;;;;;;4967907;28;20049;-74
2023/05/02 11:15:41;;;;;;;10.55;4.85;;;16.90;49.40;;;;;;4974950;28;19917;-75
2023/05/02 11:18:13;;;;;;;11.63;5.00;;;17.00;48.70;;;;;;4970510;28;20118;-74
2023/05/02 11:20:43;;;;;;;12.25;5.07;;;16.90;49.30;;;;;;4972177;28;20018;-74
2023/05/02 11:23:15;;;;;;;13.68;5.63;;;17.20;48.80;;;;;;4970869;28;20118;-75
2023/05/02 11:25:42;;;;;;;11.15;5.63;;;17.10;49.60;;;;;;4970664;28;20023;-77
2023/05/02 11:28:37;;;;;;;11.18;5.85;;;17.10;49.50;;;;;;4973321;28;20014;-76
2023/05/02 11:31:07;;;;;;;11.82;5.40;;;17.40;47.70;;;;;;4970312;28;20031;-77
2023/05/02 11:33:33;;;;;;;10.57;5.93;;;17.80;49.60;;;;;;4970270;28;20433;-76
2023/05/02 11:35:59;;;;;;;10.77;5.47;;;18.00;50.10;;;;;;4967859;28;20031;-77
2023/05/02 11:38:33;;;;;;;10.48;5.57;;;18.10;49.90;;;;;;4975702;28;20034;-77
2023/05/02 11:41:01;;;;;;;10.93;5.70;;;17.60;47.90;;;;;;4968274;28;20484;-75
2023/05/02 11:43:28;;;;;;;9.88;5.25;;;17.50;48.90;;;;;;4971714;28;20034;-76
2023/05/02 11:45:55;;;;;;;13.48;6.43;;;17.00;49.90;;;;;;4963862;28;20107;-79
2023/05/02 11:48:26;;;;;;;11.48;5.95;;;16.80;51.60;;;;;;4966898;28;20026;-78
2023/05/02 11:50:57;;;;;;;11.63;5.70;;;16.80;51.20;;;;;;4969345;28;20031;-76
2023/05/02 11:53:28;;;;;;;10.85;4.97;;;17.20;50.70;;;;;;4972067;28;20412;-76
2023/05/02 11:55:56;;;;;;;12.32;5.47;;;17.40;49.30;;;;;;4971470;28;20027;-75
2023/05/02 11:58:25;;;;;;;13.18;5.70;;;17.40;49.60;;;;;;4961855;28;20037;-74
2023/05/02 12:00:52;;;;;;;11.05;5.00;;;17.50;49.10;;;;;;4974146;28;20022;-75
2023/05/02 12:03:32;;;;;;;11.57;5.95;;;17.40;48.00;;;;;;4975613;28;20035;-76
2023/05/02 12:06:12;;;;;;;12.27;5.78;;;17.40;49.00;;;;;;4965945;28;20514;-75
2023/05/02 12:08:39;;;;;;;9.60;5.18;;;17.20;50.80;;;;;;4973641;28;20073;-78
2023/05/02 12:11:08;;;;;;;11.98;5.80;;;17.30;48.90;;;;;;4973025;28;20070;-76
2023/05/02 12:13:34;;;;;;;10.25;5.68;;;17.30;48.70;;;;;;4982536;28;20347;-76
2023/05/02 12:16:00;;;;;;;12.13;5.50;;;17.80;49.20;;;;;;4970423;28;20049;-76
2023/05/02 12:18:26;;;;;;;13.18;6.10;;;17.90;46.30;;;;;;4975932;28;20026;-76
2023/05/02 12:20:56;;;;;;;12.43;5.43;;;17.90;47.10;;;;;;4968995;28;20050;-74
2023/05/02 12:23:25;;;;;;;10.23;5.53;;;18.00;47.00;;;;;;4972874;28;20068;-77
2023/05/02 12:25:50;;;;;;;12.38;5.13;;;18.10;47.60;;;;;;4965288;28;20066;-76
2023/05/02 12:28:19;;;;;;;9.82;4.90;;;18.00;46.80;;;;;;4970701;28;20439;-76
2023/05/02 12:30:47;;;;;;;12.05;5.82;;;17.40;47.10;;;;;;4967174;28;20090;-75
2023/05/02 12:33:13;;;;;;;9.23;5.07;;;17.50;48.10;;;;;;4968672;28;20042;-74
2023/05/02 12:35:39;;;;;;;10.68;4.80;;;17.40;47.20;;;;;;4967105;28;20151;-76
2023/05/02 12:38:31;;;;;;;10.07;5.05;;;17.30;48.20;;;;;;4964909;28;20047;-75
2023/05/02 12:40:57;;;;;;;11.05;5.07;;;17.80;47.50;;;;;;4975350;28;20054;-76